Terminal Aerodrome Forecast
Issued by NWS Shreveport, LA

Home | Current Version | Previous Version | Text Only | Print | Product List | Glossary On
Versions: 1 2 3 4 5 6 7 8 9 10 11 12 13 14 15 16
000
FTUS44 KSHV 180500 RRA
TAFSHV
TAF
KSHV 180541Z 1806/1906 07005KT 6SM -RA BR OVC035
     FM180800 06005KT 6SM BR VCSH OVC030
      TEMPO 1808/1811 5SM -RA BR BKN015
     FM181100 07006KT 4SM -DZ BR OVC006
     FM181600 08005KT 6SM BR OVC008
     FM181800 08005KT P6SM OVC010
     FM190100 06004KT P6SM OVC007=

USA.gov is the U.S. government's official web portal to all federal, state and local government web resources and services.